Time;durP1;ratioP1;P1;durP2;ratioP2;P2;SDS_P1;SDS_P2;PMS_P1;PMS_P2;Temp;Humidity;BMP_temperature;BMP_pressure;BME280_temperature;BME280_humidity;BME280_pressure;Samples;Min_cycle;Max_cycle;Signal;HPM_P1;HPM_P2
2022/07/14 00:00:52;;;;;;;3.72;2.42;;;;;;;19.43;69.45;100498.22;2066954;28;20029;-67
2022/07/14 00:01:55;;;;;;;5.35;2.95;;;;;;;19.42;69.52;100493.91;2079327;28;20045;-66
2022/07/14 00:03:03;;;;;;;8.77;2.38;;;;;;;19.44;69.57;100494.34;2071665;28;20034;-66
2022/07/14 00:04:06;;;;;;;8.55;3.20;;;;;;;19.47;69.34;100490.94;2064861;28;20050;-66
2022/07/14 00:05:10;;;;;;;6.05;2.40;;;;;;;19.45;69.26;100498.66;2078601;28;20061;-66
2022/07/14 00:06:13;;;;;;;5.32;2.40;;;;;;;19.42;69.23;100507.53;2088536;28;20033;-66
2022/07/14 00:07:15;;;;;;;4.88;2.38;;;;;;;19.42;69.21;100491.19;2088712;28;20388;-64
2022/07/14 00:08:20;;;;;;;4.50;2.40;;;;;;;19.45;69.27;100504.91;2086376;28;20053;-65
2022/07/14 00:09:22;;;;;;;7.63;2.42;;;;;;;19.46;68.88;100497.53;2080468;28;20394;-65
2022/07/14 00:10:25;;;;;;;6.85;2.65;;;;;;;19.40;68.89;100498.88;2071532;28;20061;-66
2022/07/14 00:11:30;;;;;;;5.43;2.28;;;;;;;19.38;68.02;100498.41;2063458;28;20054;-66
2022/07/14 00:12:35;;;;;;;7.18;2.42;;;;;;;19.35;67.46;100505.34;2057807;28;20054;-67
2022/07/14 00:13:38;;;;;;;6.28;2.15;;;;;;;19.34;67.86;100501.03;2063919;28;20050;-67
2022/07/14 00:14:40;;;;;;;5.35;2.20;;;;;;;19.36;67.44;100498.78;2071997;28;20056;-67
2022/07/14 00:15:46;;;;;;;6.90;2.05;;;;;;;19.36;67.67;100496.03;2080268;28;20044;-67
2022/07/14 00:16:49;;;;;;;3.22;2.20;;;;;;;19.35;67.60;100497.16;2079850;28;20092;-67
2022/07/14 00:17:56;;;;;;;4.88;2.17;;;;;;;19.30;67.57;100497.41;2071452;28;20049;-67
2022/07/14 00:19:01;;;;;;;4.93;2.22;;;;;;;19.25;67.28;100486.69;2072215;28;20390;-66
2022/07/14 00:20:05;;;;;;;4.00;1.73;;;;;;;19.26;67.30;100499.19;2085397;28;20049;-67
2022/07/14 00:21:16;;;;;;;4.82;2.15;;;;;;;19.27;67.21;100500.00;2087270;28;20060;-64
2022/07/14 00:22:19;;;;;;;2.95;1.83;;;;;;;19.24;67.24;100500.69;2079781;28;20029;-66
2022/07/14 00:23:24;;;;;;;8.98;2.20;;;;;;;19.24;67.24;100497.97;2071648;28;20037;-65
2022/07/14 00:24:27;;;;;;;4.55;2.38;;;;;;;19.21;67.31;100489.31;2073004;28;20064;-65
2022/07/14 00:25:31;;;;;;;4.07;1.83;;;;;;;19.23;67.37;100491.72;2079621;28;20029;-66
2022/07/14 00:26:33;;;;;;;4.03;2.00;;;;;;;19.24;67.47;100489.78;2071718;28;20437;-66
2022/07/14 00:27:36;;;;;;;5.00;2.10;;;;;;;19.20;67.60;100490.47;2065640;28;20057;-67
2022/07/14 00:28:38;;;;;;;11.25;2.50;;;;;;;19.21;67.68;100497.50;2063780;28;20053;-67
2022/07/14 00:29:42;;;;;;;4.38;2.17;;;;;;;19.18;67.97;100492.72;2071458;28;20060;-67
2022/07/14 00:30:51;;;;;;;3.72;2.08;;;;;;;19.13;68.07;100490.19;2071427;28;20048;-66
2022/07/14 00:31:56;;;;;;;4.95;1.98;;;;;;;19.18;68.16;100495.44;2072729;28;20054;-67
2022/07/14 00:33:01;;;;;;;3.15;1.80;;;;;;;19.16;68.13;100497.69;2080364;28;20053;-66
2022/07/14 00:34:04;;;;;;;5.45;2.20;;;;;;;19.13;68.22;100492.13;2071494;28;20046;-67
2022/07/14 00:35:10;;;;;;;4.78;1.95;;;;;;;19.08;68.10;100493.16;2056385;28;20047;-67
2022/07/14 00:36:18;;;;;;;4.15;1.77;;;;;;;19.07;67.84;100490.75;2064814;28;20047;-67
2022/07/14 00:37:22;;;;;;;5.35;2.00;;;;;;;19.05;67.83;100491.09;2071953;28;20049;-66
2022/07/14 00:38:24;;;;;;;3.97;2.00;;;;;;;19.07;67.67;100491.53;2080100;28;20485;-66
2022/07/14 00:39:54;;;;;;;3.72;2.10;;;;;;;19.07;67.80;100491.53;2087034;28;20052;-66
2022/07/14 00:40:51;;;;;;;4.60;2.00;;;;;;;18.95;67.75;100499.72;2088262;28;20591;-67
2022/07/14 00:41:53;;;;;;;5.55;1.90;;;;;;;18.93;67.76;100496.50;2062881;28;20098;-66
2022/07/14 00:42:58;;;;;;;2.30;2.00;;;;;;;18.95;67.85;100500.50;2064189;28;20049;-67
2022/07/14 00:44:01;;;;;;;4.05;1.75;;;;;;;18.98;67.52;100499.84;2078861;28;20037;-66
2022/07/14 00:45:17;;;;;;;4.60;1.77;;;;;;;18.91;67.49;100496.03;2071712;28;20057;-65
2022/07/14 00:46:18;;;;;;;13.77;2.45;;;;;;;18.90;67.25;100497.97;2071418;28;20049;-65
2022/07/14 00:47:21;;;;;;;4.45;1.92;;;;;;;18.94;67.25;100496.16;2063583;28;20382;-66
2022/07/14 00:48:25;;;;;;;6.22;1.70;;;;;;;18.95;66.74;100505.16;2055898;28;20042;-66
2022/07/14 00:49:37;;;;;;;5.40;1.92;;;;;;;18.83;66.53;100497.75;2056026;28;20078;-66
2022/07/14 00:50:43;;;;;;;4.80;1.85;;;;;;;18.83;66.72;100505.13;2064398;28;20137;-67
2022/07/14 00:51:45;;;;;;;6.18;1.67;;;;;;;18.83;66.50;100505.13;2084053;28;20049;-66
2022/07/14 00:52:50;;;;;;;7.03;1.88;;;;;;;18.82;66.57;100501.59;2070726;28;20057;-66
2022/07/14 00:53:57;;;;;;;5.00;1.80;;;;;;;18.82;66.63;100503.50;2064016;28;20533;-67
2022/07/14 00:55:04;;;;;;;4.40;1.70;;;;;;;18.79;66.57;100504.19;2071796;28;20057;-66
2022/07/14 00:56:07;;;;;;;4.25;1.77;;;;;;;18.83;66.44;100507.84;2072450;28;20045;-66
2022/07/14 00:57:09;;;;;;;3.85;1.63;;;;;;;18.80;66.58;100503.06;2071505;28;20049;-66
2022/07/14 00:58:14;;;;;;;3.63;1.60;;;;;;;18.78;66.39;100500.66;2079411;28;20053;-66
2022/07/14 00:59:15;;;;;;;5.53;1.50;;;;;;;18.75;66.45;100499.41;2063222;28;20043;-65
2022/07/14 01:00:23;;;;;;;10.20;1.70;;;;;;;18.72;66.28;100501.97;2064569;28;20061;-66
2022/07/14 01:01:25;;;;;;;7.80;2.17;;;;;;;18.67;66.29;100505.72;2071126;28;20425;-66
2022/07/14 01:02:26;;;;;;;7.07;1.48;;;;;;;18.66;66.41;100503.31;2071923;28;20128;-66
2022/07/14 01:03:33;;;;;;;4.38;1.75;;;;;;;18.69;66.37;100508.09;2079465;28;20037;-66
2022/07/14 01:04:38;;;;;;;6.03;1.45;;;;;;;18.62;66.25;100508.63;2082604;28;20056;-66
2022/07/14 01:05:41;;;;;;;4.20;1.50;;;;;;;18.66;66.25;100508.75;2079247;28;20057;-66
2022/07/14 01:06:42;;;;;;;5.32;1.50;;;;;;;18.63;66.10;100512.97;2071328;28;20046;-66
2022/07/14 01:07:49;;;;;;;6.55;1.80;;;;;;;18.64;66.28;100511.81;2072890;28;20058;-66
2022/07/14 01:08:55;;;;;;;5.00;1.50;;;;;;;18.63;65.97;100507.50;2065755;28;20066;-66
2022/07/14 01:09:57;;;;;;;5.82;1.67;;;;;;;18.63;66.04;100515.69;2063252;28;20042;-66
2022/07/14 01:11:05;;;;;;;5.15;1.40;;;;;;;18.64;66.11;100509.09;2070826;28;20041;-66
2022/07/14 01:12:11;;;;;;;5.93;1.60;;;;;;;18.66;66.00;100514.19;2084524;28;20056;-66
2022/07/14 01:13:13;;;;;;;3.78;1.30;;;;;;;18.59;65.94;100508.50;2089161;28;20045;-66
2022/07/14 01:14:14;;;;;;;4.32;1.40;;;;;;;18.53;65.92;100505.97;2073054;28;20060;-66
2022/07/14 01:15:19;;;;;;;6.40;1.40;;;;;;;18.59;65.79;100519.38;2081716;28;20421;-65
2022/07/14 01:16:28;;;;;;;5.95;1.60;;;;;;;18.56;65.91;100515.41;2089575;28;20095;-65
2022/07/14 01:17:31;;;;;;;3.92;1.70;;;;;;;18.48;65.74;100513.56;2073566;28;20074;-66
2022/07/14 01:18:36;;;;;;;3.83;1.33;;;;;;;18.46;65.82;100510.38;2073553;28;20037;-66
2022/07/14 01:19:39;;;;;;;6.78;1.63;;;;;;;18.49;65.93;100509.69;2069681;28;20296;-65
2022/07/14 01:20:41;;;;;;;5.15;1.63;;;;;;;18.50;65.76;100511.28;2072945;28;20042;-66
2022/07/14 01:21:45;;;;;;;5.65;1.60;;;;;;;18.49;65.77;100515.16;2081916;28;20429;-66
2022/07/14 01:22:48;;;;;;;7.63;1.75;;;;;;;18.46;65.59;100515.81;2081180;28;20041;-66
2022/07/14 01:23:50;;;;;;;3.78;1.40;;;;;;;18.42;65.60;100507.53;2073014;28;20478;-66
2022/07/14 01:24:55;;;;;;;5.65;1.20;;;;;;;18.42;65.61;100509.44;2073612;28;20041;-65
2022/07/14 01:25:57;;;;;;;2.97;1.65;;;;;;;18.46;65.59;100518.53;2081232;28;20033;-66
2022/07/14 01:26:59;;;;;;;2.55;1.30;;;;;;;18.44;65.79;100509.91;2081808;28;20716;-65
2022/07/14 01:28:01;;;;;;;5.32;1.30;;;;;;;18.44;65.48;100507.16;2081027;28;20046;-65
2022/07/14 01:29:03;;;;;;;6.28;1.55;;;;;;;18.41;65.09;100502.38;2072787;28;20426;-66
2022/07/14 01:30:07;;;;;;;2.72;1.25;;;;;;;18.37;64.98;100506.91;2073199;28;20041;-66
2022/07/14 01:31:08;;;;;;;7.38;1.35;;;;;;;18.34;64.90;100508.38;2080736;28;20100;-66
2022/07/14 01:32:11;;;;;;;4.75;1.17;;;;;;;18.29;65.02;100512.09;2081793;28;20072;-66
2022/07/14 01:33:12;;;;;;;5.60;1.65;;;;;;;18.33;64.95;100508.72;2064654;28;20061;-66
2022/07/14 01:34:15;;;;;;;5.75;1.40;;;;;;;18.25;65.08;100515.78;2057427;28;20043;-66
2022/07/14 01:35:21;;;;;;;3.25;1.33;;;;;;;18.27;64.80;100514.34;2072957;28;20045;-65
2022/07/14 01:36:24;;;;;;;4.82;1.33;;;;;;;18.22;64.64;100517.28;2082026;28;20045;-66
2022/07/14 01:37:28;;;;;;;2.92;1.15;;;;;;;18.21;64.85;100523.84;2089958;28;20691;-66
2022/07/14 01:38:33;;;;;;;4.80;1.33;;;;;;;18.15;64.67;100519.72;2072331;28;20050;-66
2022/07/14 01:39:36;;;;;;;4.68;1.05;;;;;;;18.16;65.03;100513.16;2066037;28;20629;-66
2022/07/14 01:40:37;;;;;;;7.07;1.40;;;;;;;18.12;64.72;100523.09;2072838;28;20049;-66
2022/07/14 01:41:39;;;;;;;4.47;1.50;;;;;;;18.13;64.96;100521.97;2064872;28;20049;-66
2022/07/14 01:42:42;;;;;;;6.03;1.40;;;;;;;18.16;64.88;100521.31;2068045;28;20065;-66
2022/07/14 01:43:45;;;;;;;4.07;1.10;;;;;;;18.19;64.89;100526.09;2081466;28;20045;-65
2022/07/14 01:44:47;;;;;;;7.55;1.52;;;;;;;18.20;64.62;100514.09;2073034;28;20041;-65
2022/07/14 01:45:51;;;;;;;5.00;1.38;;;;;;;18.26;64.59;100522.84;2065114;28;20043;-66
2022/07/14 01:46:53;;;;;;;4.50;1.48;;;;;;;18.22;64.63;100524.63;2065164;28;20065;-65
2022/07/14 01:47:56;;;;;;;5.63;1.33;;;;;;;18.16;64.77;100524.03;2057948;28;20054;-65
2022/07/14 01:48:59;;;;;;;9.35;2.15;;;;;;;18.13;65.03;100523.91;2056174;28;20059;-66
2022/07/14 01:50:03;;;;;;;4.82;1.20;;;;;;;18.09;65.08;100521.03;2072821;28;20052;-66
2022/07/14 01:51:12;;;;;;;5.85;1.27;;;;;;;18.13;65.04;100521.97;2065413;28;20478;-65
2022/07/14 01:52:15;;;;;;;3.30;1.30;;;;;;;18.08;65.13;100527.59;2072713;28;20053;-66
2022/07/14 01:53:19;;;;;;;6.10;1.20;;;;;;;18.10;65.26;100530.00;2080912;28;20052;-66
2022/07/14 01:54:26;;;;;;;8.02;1.70;;;;;;;18.10;65.28;100530.00;2072754;28;20053;-67
2022/07/14 01:55:34;;;;;;;;;;;;;;;18.10;65.21;100533.53;2075136;28;20042;-66
2022/07/14 01:56:42;;;;;;;4.25;1.33;;;;;;;18.06;65.20;100529.84;2072830;28;19917;-66
2022/07/14 01:57:54;;;;;;;5.95;1.75;;;;;;;18.01;65.37;100521.88;2067945;28;20049;-67
2022/07/14 01:59:00;;;;;;;4.85;1.10;;;;;;;18.01;65.32;100522.69;2073211;28;20054;-66
2022/07/14 02:00:09;;;;;;;6.80;1.60;;;;;;;18.00;65.26;100531.16;2065074;28;20510;-66
2022/07/14 02:02:43;;;;;;;3.00;1.05;;;;;;;17.95;65.27;100525.94;2081498;28;20042;-65
2022/07/14 02:03:45;;;;;;;9.60;1.40;;;;;;;17.94;65.28;100527.06;2072616;28;20640;-65
2022/07/14 02:04:50;;;;;;;4.00;1.30;;;;;;;17.94;64.98;100527.06;2069526;28;20509;-65
2022/07/14 02:05:52;;;;;;;5.40;1.20;;;;;;;17.91;65.23;100523.06;2063987;28;20051;-64
2022/07/14 02:06:56;;;;;;;4.40;1.10;;;;;;;17.94;64.92;100529.78;2049011;28;20043;-65
2022/07/14 02:08:20;;;;;;;3.42;1.27;;;;;;;17.92;64.85;100524.66;2072795;28;20053;-65
2022/07/14 02:12:10;;;;;;;4.00;1.30;;;;;;;17.83;64.98;100521.97;2072767;28;20050;-65
2022/07/14 02:12:11;;;;;;;6.60;1.35;;;;;;;17.81;64.97;100524.25;2083679;28;20037;-67
2022/07/14 02:13:16;;;;;;;5.97;1.20;;;;;;;17.74;64.94;100518.47;2080737;28;20520;-66
2022/07/14 02:14:19;;;;;;;12.07;1.55;;;;;;;17.74;64.88;100521.19;2071901;28;20454;-65
2022/07/14 02:15:23;;;;;;;5.60;0.90;;;;;;;17.69;65.06;100520.59;2071950;28;20058;-65
2022/07/14 02:16:30;;;;;;;6.68;1.15;;;;;;;17.68;65.03;100522.50;2065029;28;20107;-66
2022/07/14 02:17:34;;;;;;;7.18;1.55;;;;;;;17.68;64.97;100522.50;2073969;28;20042;-66
2022/07/14 02:18:43;;;;;;;4.82;1.42;;;;;;;17.68;64.97;100521.69;2087963;28;20049;-65
2022/07/14 02:19:47;;;;;;;3.60;1.35;;;;;;;17.67;64.87;100525.56;2080441;28;20041;-66
2022/07/14 02:20:49;;;;;;;5.10;1.17;;;;;;;17.69;64.71;100518.66;2072440;28;20060;-66
2022/07/14 02:21:52;;;;;;;5.15;1.48;;;;;;;17.64;64.80;100518.84;2064765;28;20047;-65
2022/07/14 02:22:59;;;;;;;7.88;1.65;;;;;;;17.62;64.83;100518.38;2065152;28;20058;-66
2022/07/14 02:24:04;;;;;;;3.33;1.08;;;;;;;17.60;64.74;100523.34;2072073;28;20057;-65
2022/07/14 02:25:08;;;;;;;4.03;1.13;;;;;;;17.58;64.94;100523.66;2066722;28;20509;-65
2022/07/14 02:26:14;;;;;;;8.50;1.10;;;;;;;17.59;64.69;100521.72;2064734;28;20062;-65
2022/07/14 02:27:16;;;;;;;6.40;1.13;;;;;;;17.57;64.45;100519.34;2073729;28;20050;-64
2022/07/14 02:28:21;;;;;;;5.82;1.25;;;;;;;17.53;64.69;100517.63;2073872;28;20105;-66
2022/07/14 02:29:25;;;;;;;9.32;1.38;;;;;;;17.53;64.86;100529.28;2071965;28;20049;-66
2022/07/14 02:30:29;;;;;;;4.13;1.13;;;;;;;17.56;64.75;100527.84;2072204;28;20417;-65
2022/07/14 02:31:34;;;;;;;5.88;1.30;;;;;;;17.54;64.68;100530.09;2064373;28;20041;-65
2022/07/14 02:32:41;;;;;;;6.88;1.20;;;;;;;17.55;64.63;100529.75;2065531;28;20727;-66
2022/07/14 02:33:43;;;;;;;6.25;1.23;;;;;;;17.53;64.49;100529.28;2072065;28;20440;-65
2022/07/14 02:34:45;;;;;;;6.53;1.17;;;;;;;17.54;64.49;100524.66;2072533;28;20478;-64
2022/07/14 02:35:48;;;;;;;4.15;1.10;;;;;;;17.52;64.31;100526.88;2080123;28;20057;-66
2022/07/14 02:36:53;;;;;;;4.35;1.10;;;;;;;17.55;64.07;100528.94;2079044;28;20580;-65
2022/07/14 02:37:57;;;;;;;7.97;1.13;;;;;;;17.49;64.42;100532.97;2072258;28;20397;-65
2022/07/14 02:39:00;;;;;;;8.20;1.20;;;;;;;17.46;64.66;100528.97;2056540;28;20054;-64
2022/07/14 02:40:07;;;;;;;6.35;1.00;;;;;;;17.42;64.69;100530.75;2071340;28;20045;-66
2022/07/14 02:41:10;;;;;;;6.65;1.00;;;;;;;17.40;64.48;100537.63;2073676;28;20057;-66
2022/07/14 02:42:16;;;;;;;5.03;1.25;;;;;;;17.42;64.73;100540.84;2072091;28;20509;-67
2022/07/14 02:43:19;;;;;;;4.93;0.82;;;;;;;17.47;64.56;100537.97;2056778;28;20046;-65
2022/07/14 02:44:21;;;;;;;6.45;1.50;;;;;;;17.40;64.37;100541.16;2057344;28;20043;-65
2022/07/14 02:45:22;;;;;;;7.82;0.98;;;;;;;17.42;64.31;100541.63;2064581;28;20034;-66
2022/07/14 02:46:24;;;;;;;3.83;0.90;;;;;;;17.40;64.29;100545.78;2072473;28;20061;-66
2022/07/14 02:47:27;;;;;;;6.30;1.08;;;;;;;17.42;64.26;100538.13;2071561;28;20061;-65
2022/07/14 02:48:29;;;;;;;7.03;1.10;;;;;;;17.43;64.32;100545.94;2064401;28;20042;-66
2022/07/14 02:49:33;;;;;;;4.55;0.93;;;;;;;17.37;64.26;100548.06;2072612;28;20049;-66
2022/07/14 02:50:37;;;;;;;3.47;1.20;;;;;;;17.34;64.25;100550.63;2064232;28;20046;-66
2022/07/14 02:51:42;;;;;;;7.68;1.10;;;;;;;17.39;64.28;100555.88;2070539;28;20041;-65
2022/07/14 02:52:43;;;;;;;9.52;1.98;;;;;;;17.36;64.15;100553.81;2072370;28;20056;-66
2022/07/14 02:53:50;;;;;;;6.82;0.80;;;;;;;17.27;64.49;100553.81;2063948;28;20058;-65
2022/07/14 02:54:54;;;;;;;5.93;1.38;;;;;;;17.30;64.33;100550.44;2058565;28;20059;-66
2022/07/14 02:56:05;;;;;;;6.35;1.02;;;;;;;17.32;64.53;100561.81;2065389;28;20042;-65
2022/07/14 02:57:12;;;;;;;8.40;1.00;;;;;;;17.27;64.49;100559.25;2065969;28;20067;-66
2022/07/14 02:58:17;;;;;;;5.43;1.33;;;;;;;17.27;64.79;100551.09;2064439;28;20046;-65
2022/07/14 02:59:20;;;;;;;4.82;1.15;;;;;;;17.25;64.58;100556.06;2065589;28;20058;-65
2022/07/14 03:00:26;;;;;;;2.85;0.90;;;;;;;17.25;64.65;100550.66;2071560;28;20058;-65
2022/07/14 03:01:29;;;;;;;9.18;1.52;;;;;;;17.28;64.38;100550.00;2064310;28;20046;-65
2022/07/14 03:02:33;;;;;;;4.63;1.20;;;;;;;17.28;64.66;100555.44;2079292;28;20038;-67
2022/07/14 03:03:39;;;;;;;5.57;1.10;;;;;;;17.31;64.33;100560.22;2079707;28;20064;-65
2022/07/14 03:04:42;;;;;;;6.05;1.08;;;;;;;17.34;64.26;100556.84;2065619;28;20029;-66
2022/07/14 03:05:47;;;;;;;4.72;0.85;;;;;;;17.29;64.02;100548.88;2065345;28;20038;-65
2022/07/14 03:06:49;;;;;;;5.40;1.20;;;;;;;17.34;64.14;100553.34;2072290;28;20104;-66
2022/07/14 03:07:56;;;;;;;11.32;1.45;;;;;;;17.41;63.82;100552.84;2073489;28;20042;-65
2022/07/14 03:08:58;;;;;;;4.13;0.85;;;;;;;17.43;63.82;100547.88;2072979;28;20033;-65
2022/07/14 03:10:03;;;;;;;5.07;1.10;;;;;;;17.42;63.59;100557.94;2080902;28;20040;-65
2022/07/14 03:11:08;;;;;;;4.32;0.90;;;;;;;17.42;63.53;100557.16;2079668;28;20064;-67
2022/07/14 03:12:11;;;;;;;3.50;1.00;;;;;;;17.45;63.60;100560.00;2072049;28;20046;-66
2022/07/14 03:13:17;;;;;;;3.20;0.88;;;;;;;17.45;63.33;100559.22;2072323;28;20053;-64
2022/07/14 03:14:22;;;;;;;1.98;0.70;;;;;;;17.48;63.30;100553.94;2064131;28;20054;-65
2022/07/14 03:15:25;;;;;;;6.68;0.98;;;;;;;17.55;63.06;100551.50;2064892;28;20107;-65
2022/07/14 03:16:27;;;;;;;3.85;1.00;;;;;;;17.53;63.13;100555.69;2072315;28;20057;-65
2022/07/14 03:17:34;;;;;;;4.80;0.88;;;;;;;17.54;63.04;100562.72;2080823;28;20045;-65
2022/07/14 03:18:40;;;;;;;4.70;1.08;;;;;;;17.54;63.13;100552.63;2080437;28;20058;-65
2022/07/14 03:19:43;;;;;;;6.57;1.30;;;;;;;17.57;62.84;100553.91;2072855;28;20517;-64
2022/07/14 03:20:45;;;;;;;5.63;0.95;;;;;;;17.56;62.90;100561.25;2072236;28;20062;-67
2022/07/14 03:21:54;;;;;;;5.55;1.38;;;;;;;17.69;62.70;100558.66;2072282;28;20037;-66
2022/07/14 03:23:01;;;;;;;5.38;0.63;;;;;;;17.61;62.60;100549.41;2065501;28;20050;-66
2022/07/14 03:24:04;;;;;;;3.47;0.70;;;;;;;17.66;62.81;100562.03;2072672;28;20046;-66
2022/07/14 03:25:10;;;;;;;3.60;0.80;;;;;;;17.74;62.53;100561.97;2047397;28;20055;-65
2022/07/14 03:26:15;;;;;;;5.05;1.38;;;;;;;17.78;62.23;100559.44;2051459;28;20043;-66
2022/07/14 03:27:18;;;;;;;6.22;0.88;;;;;;;17.84;62.38;100549.97;2056042;28;20058;-66
2022/07/14 03:28:22;;;;;;;7.43;1.15;;;;;;;17.89;62.24;100557.94;2065381;28;20462;-65
2022/07/14 03:29:27;;;;;;;4.05;0.93;;;;;;;17.93;62.21;100564.31;2072596;28;20058;-66
2022/07/14 03:30:30;;;;;;;4.68;1.10;;;;;;;18.01;62.13;100562.69;2072869;28;20034;-65
2022/07/14 03:31:34;;;;;;;6.40;1.27;;;;;;;18.10;61.73;100568.91;2080701;28;20042;-66
2022/07/14 03:32:38;;;;;;;4.50;0.77;;;;;;;18.15;61.92;100567.91;2070842;28;20049;-66
2022/07/14 03:33:42;;;;;;;3.67;0.88;;;;;;;18.16;62.01;100570.31;2064585;28;20042;-66
2022/07/14 03:34:46;;;;;;;6.05;1.40;;;;;;;18.21;61.88;100570.09;2064125;28;20442;-66
2022/07/14 03:35:53;;;;;;;3.33;0.80;;;;;;;18.28;61.59;100581.28;2067207;28;20435;-66
2022/07/14 03:36:57;;;;;;;6.88;1.02;;;;;;;18.34;61.55;100578.34;2088400;28;20041;-67
2022/07/14 03:38:08;;;;;;;6.72;1.08;;;;;;;18.44;61.39;100578.78;2079520;28;20046;-68
2022/07/14 03:39:11;;;;;;;3.55;0.98;;;;;;;18.44;61.36;100577.94;2080574;28;20049;-68
2022/07/14 03:40:13;;;;;;;6.57;1.23;;;;;;;18.56;61.00;100574.50;2077083;28;20544;-68
2022/07/14 03:41:18;;;;;;;7.50;0.90;;;;;;;18.63;60.62;100575.59;2072643;28;20124;-68
2022/07/14 03:42:21;;;;;;;4.60;1.30;;;;;;;18.78;60.51;100576.13;2063938;28;20042;-67
2022/07/14 03:43:27;;;;;;;5.07;1.02;;;;;;;18.78;60.12;100565.25;2057534;28;20450;-68
2022/07/14 03:44:29;;;;;;;9.07;1.00;;;;;;;18.82;59.82;100571.59;2062846;28;20414;-68
2022/07/14 03:45:31;;;;;;;3.08;0.90;;;;;;;18.85;59.77;100573.66;2064254;28;20117;-68
2022/07/14 03:46:38;;;;;;;3.97;0.90;;;;;;;18.92;59.62;100571.22;2072845;28;20044;-68
2022/07/14 03:47:47;;;;;;;5.45;1.38;;;;;;;18.99;59.46;100560.56;2079871;28;20068;-68
2022/07/14 03:48:52;;;;;;;3.88;0.80;;;;;;;18.95;58.72;100578.72;2072406;28;20378;-68
2022/07/14 03:49:54;;;;;;;9.35;0.93;;;;;;;19.10;59.20;100567.19;2080834;28;20072;-68
2022/07/14 03:50:57;;;;;;;5.43;0.77;;;;;;;19.14;58.68;100562.66;2072075;28;20061;-68
2022/07/14 03:52:01;;;;;;;3.75;0.75;;;;;;;19.28;58.08;100564.28;2056553;28;20470;-68
2022/07/14 03:53:05;;;;;;;7.18;0.82;;;;;;;19.45;57.44;100561.34;2061650;28;20042;-68
2022/07/14 03:54:07;;;;;;;5.25;0.82;;;;;;;19.63;56.99;100560.03;2071431;28;20046;-68
2022/07/14 03:55:14;;;;;;;3.95;1.00;;;;;;;19.73;57.07;100558.03;2055481;28;20047;-68
2022/07/14 03:56:19;;;;;;;3.38;1.23;;;;;;;19.82;56.08;100558.72;2056561;28;20047;-68
2022/07/14 03:57:23;;;;;;;4.60;0.75;;;;;;;20.01;55.98;100561.66;2071493;28;20052;-66
2022/07/14 03:58:28;;;;;;;3.28;0.70;;;;;;;20.09;55.60;100549.03;2063602;28;20113;-65
2022/07/14 03:59:32;;;;;;;3.65;0.80;;;;;;;20.07;55.17;100554.84;2064374;28;20054;-67
2022/07/14 04:00:34;;;;;;;5.65;1.05;;;;;;;20.19;54.98;100553.25;2071067;28;20034;-67
2022/07/14 04:01:38;;;;;;;3.33;0.88;;;;;;;20.28;54.87;100553.91;2070282;28;20058;-68
2022/07/14 04:02:40;;;;;;;3.67;0.73;;;;;;;20.32;54.93;100543.88;2063912;28;20045;-68
2022/07/14 04:03:47;;;;;;;5.10;1.10;;;;;;;20.38;54.35;100547.97;2063128;28;20049;-68
2022/07/14 04:04:49;;;;;;;4.15;0.93;;;;;;;20.36;53.75;100552.97;2073515;28;20033;-68
2022/07/14 04:05:52;;;;;;;6.88;0.80;;;;;;;20.43;53.89;100552.38;2071026;28;20451;-68
2022/07/14 04:06:54;;;;;;;3.35;0.65;;;;;;;20.53;53.61;100555.47;2071426;28;20050;-68
2022/07/14 04:07:59;;;;;;;6.45;1.00;;;;;;;20.53;53.95;100550.00;2070459;28;20437;-65
2022/07/14 04:09:03;;;;;;;5.40;0.73;;;;;;;20.64;53.46;100554.97;2070689;28;20062;-67
2022/07/14 04:10:08;;;;;;;3.88;1.05;;;;;;;20.64;52.92;100552.25;2071597;28;20519;-67
2022/07/14 04:11:15;;;;;;;3.85;0.90;;;;;;;20.67;53.05;100546.88;2064265;28;20467;-67
2022/07/14 04:12:19;;;;;;;4.47;0.80;;;;;;;20.89;52.60;100540.09;2071052;28;20044;-65
2022/07/14 04:13:20;;;;;;;3.67;0.80;;;;;;;20.90;51.96;100552.63;2080465;28;20033;-65
2022/07/14 04:14:25;;;;;;;6.05;0.98;;;;;;;20.97;52.21;100536.41;2071727;28;20140;-66
2022/07/14 04:15:33;;;;;;;6.07;0.73;;;;;;;21.07;51.78;100546.03;2073714;28;20034;-67
2022/07/14 04:16:39;;;;;;;4.00;0.75;;;;;;;21.14;51.57;100542.69;2080781;28;20060;-64
2022/07/14 04:17:43;;;;;;;5.43;1.58;;;;;;;21.19;51.30;100543.25;2080780;28;20382;-65
2022/07/14 04:18:45;;;;;;;2.85;1.00;;;;;;;21.29;50.97;100547.41;2088206;28;20057;-65
2022/07/14 04:19:47;;;;;;;3.85;0.73;;;;;;;21.20;50.85;100547.56;2068852;28;20127;-66
2022/07/14 04:20:54;;;;;;;3.72;1.00;;;;;;;21.27;50.95;100546.94;2065032;28;20046;-67
2022/07/14 04:21:57;;;;;;;3.45;0.85;;;;;;;21.33;51.15;100548.28;2073079;28;20085;-64
2022/07/14 04:23:02;;;;;;;4.43;0.88;;;;;;;21.45;50.63;100540.03;2071448;28;20052;-64
2022/07/14 04:24:06;;;;;;;5.55;0.80;;;;;;;21.37;50.56;100542.94;2072255;28;20045;-66
2022/07/14 04:25:12;;;;;;;3.25;0.85;;;;;;;21.38;50.24;100539.84;2079954;28;20064;-67
2022/07/14 04:26:14;;;;;;;6.85;0.77;;;;;;;21.41;50.36;100544.63;2080483;28;20038;-67
2022/07/14 04:27:17;;;;;;;5.85;0.73;;;;;;;21.47;50.43;100545.97;2079859;28;20053;-67
2022/07/14 04:28:19;;;;;;;4.40;0.80;;;;;;;21.54;50.34;100547.28;2074643;28;20072;-66
2022/07/14 04:29:23;;;;;;;3.08;0.88;;;;;;;21.54;50.44;100547.28;2071751;28;20095;-66
2022/07/14 04:30:27;;;;;;;4.45;0.80;;;;;;;21.55;50.21;100543.38;2056137;28;20046;-68
2022/07/14 04:31:33;;;;;;;4.32;0.75;;;;;;;21.60;50.02;100545.88;2064726;28;20534;-65
2022/07/14 04:32:35;;;;;;;2.78;0.55;;;;;;;21.64;49.84;100544.00;2072211;28;20049;-67
2022/07/14 04:33:40;;;;;;;4.50;0.70;;;;;;;21.69;49.46;100539.06;2071801;28;20489;-65
2022/07/14 04:34:44;;;;;;;1.70;0.70;;;;;;;21.77;49.88;100545.50;2071496;28;20058;-65
2022/07/14 04:35:48;;;;;;;5.57;0.90;;;;;;;21.90;49.87;100549.72;2066579;28;20057;-65
2022/07/14 04:36:50;;;;;;;1.90;0.55;;;;;;;21.89;48.76;100547.34;2074530;28;20053;-65
2022/07/14 04:37:55;;;;;;;4.07;0.68;;;;;;;21.93;49.19;100548.22;2068251;28;20775;-64
2022/07/14 04:39:06;;;;;;;6.18;0.75;;;;;;;22.12;48.89;100551.00;2068726;28;20042;-64
2022/07/14 04:40:10;;;;;;;2.95;0.60;;;;;;;22.12;48.88;100547.47;2069644;28;20549;-64
2022/07/14 04:41:14;;;;;;;7.97;1.33;;;;;;;22.21;48.41;100545.38;2064832;28;20046;-64
2022/07/14 04:42:15;;;;;;;7.22;0.60;;;;;;;22.27;48.45;100538.47;2063730;28;20042;-64
2022/07/14 04:43:20;;;;;;;3.83;0.60;;;;;;;22.35;48.31;100545.69;2063665;28;20050;-64
2022/07/14 04:44:25;;;;;;;2.85;0.70;;;;;;;22.39;47.59;100543.81;2070484;28;20045;-64
2022/07/14 04:45:31;;;;;;;2.80;0.70;;;;;;;22.37;47.87;100540.63;2068619;28;20180;-67
2022/07/14 04:46:35;;;;;;;5.63;0.80;;;;;;;22.49;47.44;100536.19;2077780;28;20037;-68
2022/07/14 04:47:40;;;;;;;6.90;1.50;;;;;;;22.56;47.21;100548.06;2074269;28;20117;-65
2022/07/14 04:53:02;;;;;;;9.13;1.10;;;;;;;22.74;46.74;100548.44;2061452;28;20042;-65
2022/07/14 04:54:17;;;;;;;5.35;0.70;;;;;;;22.85;46.68;100543.94;2069684;28;20033;-65
2022/07/14 04:55:44;;;;;;;4.07;0.80;;;;;;;22.87;46.65;100547.13;2059710;28;20046;-66
2022/07/14 04:57:06;;;;;;;3.63;0.90;;;;;;;22.91;46.31;100538.97;2048912;28;20419;-66
2022/07/14 04:58:18;;;;;;;3.97;0.70;;;;;;;22.88;46.74;100548.69;2055192;28;20096;-66
2022/07/14 04:59:20;;;;;;;1.77;0.70;;;;;;;22.94;46.43;100546.50;2067835;28;20474;-67
2022/07/14 05:00:28;;;;;;;3.67;1.00;;;;;;;23.18;46.40;100550.09;2069379;28;20648;-65
2022/07/14 05:01:32;;;;;;;4.70;0.60;;;;;;;23.29;46.13;100545.56;2059414;28;20065;-66
2022/07/14 05:02:38;;;;;;;6.18;0.80;;;;;;;23.28;45.88;100544.00;2061410;28;20076;-66
2022/07/14 05:03:43;;;;;;;3.35;0.82;;;;;;;23.35;45.90;100544.91;2067006;28;20095;-65
2022/07/14 05:04:46;;;;;;;1.95;0.70;;;;;;;23.50;45.34;100548.69;2071594;28;20121;-65
2022/07/14 05:05:53;;;;;;;2.95;0.60;;;;;;;23.51;45.21;100546.72;2063443;28;20490;-65
2022/07/14 05:06:58;;;;;;;3.92;0.80;;;;;;;23.50;45.36;100545.16;2058925;28;20110;-65
2022/07/14 05:08:03;;;;;;;5.10;0.80;;;;;;;23.57;45.22;100546.06;2061720;28;20059;-67